Time;durP1;ratioP1;P1;durP2;ratioP2;P2;SDS_P1;SDS_P2;PMS_P1;PMS_P2;Temp;Humidity;BMP_temperature;BMP_pressure;BME280_temperature;BME280_humidity;BME280_pressure;Samples;Min_cycle;Max_cycle;Signal;HPM_P1;HPM_P2
2023/09/03 00:01:57;;;;;;;9.48;6.45;;;15.80;99.90;;;;;;5143321;27;20396;-93
2023/09/03 00:04:23;;;;;;;9.05;7.05;;;15.80;99.90;;;;;;5140250;27;20050;-92
2023/09/03 00:06:49;;;;;;;9.73;6.55;;;15.80;99.90;;;;;;5151546;27;20029;-90
2023/09/03 00:09:16;;;;;;;8.32;7.30;;;15.80;99.90;;;;;;5156143;27;20254;-89
2023/09/03 00:11:43;;;;;;;7.43;6.07;;;15.80;99.90;;;;;;5155385;27;20022;-91
2023/09/03 00:14:08;;;;;;;11.30;6.25;;;15.80;99.90;;;;;;5155536;27;20556;-89
2023/09/03 00:16:34;;;;;;;10.95;6.68;;;15.80;99.90;;;;;;5157578;27;20048;-90
2023/09/03 00:18:59;;;;;;;9.68;6.00;;;15.90;99.90;;;;;;5151676;27;20171;-91
2023/09/03 00:21:25;;;;;;;12.07;7.05;;;15.80;99.90;;;;;;5128834;27;20385;-90
2023/09/03 00:23:51;;;;;;;13.90;6.47;;;15.90;99.90;;;;;;5165881;27;20027;-89
2023/09/03 00:26:21;;;;;;;13.75;6.88;;;15.80;99.90;;;;;;5163695;27;20022;-96
2023/09/03 00:28:49;;;;;;;10.25;7.25;;;15.90;99.90;;;;;;5128973;27;20603;-95
2023/09/03 00:31:15;;;;;;;11.13;7.57;;;16.00;99.90;;;;;;5154385;27;20034;-89
2023/09/03 00:33:41;;;;;;;7.50;6.80;;;16.00;99.90;;;;;;5145533;27;20037;-91
2023/09/03 00:36:09;;;;;;;6.32;5.57;;;16.00;99.90;;;;;;5145239;27;20014;-89
2023/09/03 00:38:35;;;;;;;7.22;6.00;;;16.00;99.90;;;;;;5150070;27;20479;-89
2023/09/03 00:41:04;;;;;;;9.15;6.72;;;16.00;99.90;;;;;;5150913;27;20087;-91
2023/09/03 00:43:30;;;;;;;12.77;6.38;;;16.10;99.90;;;;;;5155012;27;20130;-90
2023/09/03 00:45:58;;;;;;;11.50;7.65;;;16.10;99.90;;;;;;5141776;27;20106;-91
2023/09/03 00:48:28;;;;;;;11.52;7.75;;;16.10;99.90;;;;;;5127006;27;20025;-91
2023/09/03 00:50:58;;;;;;;11.43;8.13;;;16.10;99.90;;;;;;5154542;27;20387;-90
2023/09/03 00:53:25;;;;;;;18.02;9.48;;;16.20;99.90;;;;;;5168856;27;20394;-92
2023/09/03 00:55:51;;;;;;;10.48;8.25;;;16.30;99.90;;;;;;5147585;27;20656;-91
2023/09/03 00:58:19;;;;;;;14.30;9.30;;;16.30;99.90;;;;;;5145741;27;20034;-90
2023/09/03 01:00:45;;;;;;;14.75;9.38;;;16.40;99.90;;;;;;5150429;27;20414;-89
2023/09/03 01:03:10;;;;;;;10.23;8.82;;;16.40;99.90;;;;;;5146311;27;20023;-90
2023/09/03 01:05:37;;;;;;;13.32;9.13;;;16.40;99.90;;;;;;5158002;27;20030;-92
2023/09/03 01:08:03;;;;;;;15.32;8.77;;;16.40;99.90;;;;;;5134734;27;20028;-89
2023/09/03 01:10:49;;;;;;;10.20;8.20;;;16.40;99.90;;;;;;5143206;27;20368;-94
2023/09/03 01:13:17;;;;;;;;;;;16.40;99.90;;;;;;5145776;27;20490;-92
2023/09/03 01:15:49;;;;;;;13.75;7.72;;;16.40;99.90;;;;;;5142827;27;20374;-90
2023/09/03 01:18:24;;;;;;;8.75;7.10;;;16.30;99.90;;;;;;5141840;27;20567;-90
2023/09/03 01:21:07;;;;;;;9.63;8.15;;;16.30;99.90;;;;;;5127040;27;20039;-89
2023/09/03 01:24:01;;;;;;;9.32;7.88;;;16.30;99.90;;;;;;5119936;27;20499;-94
2023/09/03 01:26:54;;;;;;;14.35;8.23;;;16.20;99.90;;;;;;5139247;27;20042;-90
2023/09/03 01:29:23;;;;;;;10.45;8.60;;;16.20;99.90;;;;;;5134888;27;20034;-89
2023/09/03 01:31:50;;;;;;;19.92;9.57;;;16.20;99.90;;;;;;5112998;27;20033;-89
2023/09/03 01:34:16;;;;;;;10.80;7.28;;;16.20;99.90;;;;;;5137462;27;20055;-89
2023/09/03 01:36:43;;;;;;;12.68;7.53;;;16.20;99.90;;;;;;5122570;27;20764;-90
2023/09/03 01:39:09;;;;;;;11.05;8.15;;;16.10;99.90;;;;;;5134396;27;20019;-89
2023/09/03 01:41:36;;;;;;;14.35;9.60;;;16.20;99.90;;;;;;5127835;27;20039;-89
2023/09/03 01:44:02;;;;;;;11.05;8.77;;;16.20;99.90;;;;;;5124881;27;20072;-89
2023/09/03 01:46:49;;;;;;;14.70;9.20;;;16.20;99.90;;;;;;5127055;27;20031;-89
2023/09/03 01:49:38;;;;;;;12.88;9.48;;;16.20;99.90;;;;;;5132779;27;20050;-89
2023/09/03 01:52:16;;;;;;;14.48;9.52;;;16.20;99.90;;;;;;5129647;27;20114;-89
2023/09/03 01:54:48;;;;;;;14.75;9.23;;;16.20;99.90;;;;;;5117562;27;20027;-92
2023/09/03 01:57:19;;;;;;;12.93;9.23;;;16.20;99.90;;;;;;5110405;27;20535;-90
2023/09/03 01:59:51;;;;;;;18.40;10.20;;;16.20;99.90;;;;;;5133808;27;20122;-88
2023/09/03 02:02:18;;;;;;;16.10;10.20;;;16.20;99.90;;;;;;5146162;27;20522;-88
2023/09/03 02:04:44;;;;;;;17.90;11.43;;;16.20;99.90;;;;;;5119150;27;20020;-90
2023/09/03 02:07:09;;;;;;;17.50;12.35;;;16.20;99.90;;;;;;5124031;27;20556;-88
2023/09/03 02:09:35;;;;;;;18.88;12.05;;;16.20;99.90;;;;;;5098373;27;20019;-90
2023/09/03 02:12:01;;;;;;;23.05;13.13;;;16.30;99.90;;;;;;5131379;27;20019;-90
2023/09/03 02:14:30;;;;;;;23.77;13.40;;;16.30;99.90;;;;;;5134933;27;20033;-89
2023/09/03 02:16:56;;;;;;;26.55;14.48;;;16.30;99.90;;;;;;5123233;27;20015;-89
2023/09/03 02:19:22;;;;;;;28.52;15.30;;;16.30;99.90;;;;;;5136034;27;20524;-89
2023/09/03 02:21:48;;;;;;;27.08;15.02;;;16.30;99.90;;;;;;5144258;27;20039;-90
2023/09/03 02:24:14;;;;;;;23.48;14.65;;;16.30;99.90;;;;;;5135189;27;20047;-89
2023/09/03 02:26:44;;;;;;;24.85;16.02;;;16.30;99.90;;;;;;5126703;27;20050;-92
2023/09/03 02:29:10;;;;;;;22.52;15.90;;;16.30;99.90;;;;;;5120594;27;20020;-93
2023/09/03 02:31:36;;;;;;;26.00;17.25;;;16.30;99.90;;;;;;5139181;27;20027;-90
2023/09/03 02:34:04;;;;;;;27.27;17.35;;;16.30;99.90;;;;;;5116380;27;20034;-93
2023/09/03 02:36:33;;;;;;;31.08;18.42;;;16.30;99.90;;;;;;5124861;27;20086;-92
2023/09/03 02:39:00;;;;;;;19.58;15.45;;;16.30;99.90;;;;;;5122969;27;20056;-90
2023/09/03 02:41:26;;;;;;;24.02;16.77;;;16.30;99.90;;;;;;5127154;27;20063;-90
2023/09/03 02:43:52;;;;;;;21.70;15.80;;;16.30;99.90;;;;;;5127768;27;20118;-90
2023/09/03 02:46:18;;;;;;;23.42;15.05;;;16.30;99.90;;;;;;5127320;27;20097;-90
2023/09/03 02:48:44;;;;;;;26.55;15.90;;;16.30;99.90;;;;;;5128220;27;20664;-89
2023/09/03 02:51:09;;;;;;;23.90;15.57;;;16.30;99.90;;;;;;5144999;27;20023;-89
2023/09/03 02:53:35;;;;;;;24.13;14.65;;;16.30;99.90;;;;;;5109103;27;20031;-90
2023/09/03 02:56:00;;;;;;;20.75;14.52;;;16.30;99.90;;;;;;5116783;27;20054;-91
2023/09/03 02:58:26;;;;;;;23.95;15.80;;;16.30;99.90;;;;;;5127831;27;20399;-92
2023/09/03 03:00:55;;;;;;;23.45;16.05;;;16.40;99.90;;;;;;5131694;27;20083;-94
2023/09/03 03:03:20;;;;;;;22.35;14.15;;;16.30;99.90;;;;;;5112391;27;20792;-90
2023/09/03 03:05:46;;;;;;;22.55;13.13;;;16.30;99.90;;;;;;5119180;27;20027;-89
2023/09/03 03:08:11;;;;;;;25.08;15.43;;;16.30;99.90;;;;;;5139121;27;20041;-91
2023/09/03 03:10:37;;;;;;;19.52;15.05;;;16.30;99.90;;;;;;5116204;27;20028;-90
2023/09/03 03:13:03;;;;;;;21.35;13.15;;;16.30;99.90;;;;;;5121477;27;20463;-88
2023/09/03 03:15:28;;;;;;;20.33;12.32;;;16.30;99.90;;;;;;5132495;27;20051;-92
2023/09/03 03:17:57;;;;;;;20.33;12.10;;;16.20;99.90;;;;;;5120082;27;20050;-90
2023/09/03 03:20:23;;;;;;;16.13;11.10;;;16.20;99.90;;;;;;5121095;27;20031;-92
2023/09/03 03:22:48;;;;;;;20.30;14.80;;;16.20;99.90;;;;;;5122443;27;20036;-93
2023/09/03 03:25:14;;;;;;;17.02;10.68;;;16.20;99.90;;;;;;5126860;27;20853;-90
2023/09/03 03:27:43;;;;;;;18.15;12.07;;;16.10;99.90;;;;;;5127977;27;20027;-93
2023/09/03 03:30:08;;;;;;;21.17;12.23;;;16.10;99.90;;;;;;5107904;27;20023;-91
2023/09/03 03:32:37;;;;;;;17.48;11.20;;;16.10;99.90;;;;;;5118830;27;20020;-90
2023/09/03 03:35:03;;;;;;;17.00;11.52;;;16.00;99.90;;;;;;5131150;27;20023;-91
2023/09/03 03:37:32;;;;;;;11.85;9.82;;;16.00;99.90;;;;;;5129401;27;20076;-95
2023/09/03 03:39:59;;;;;;;12.38;8.98;;;16.00;99.90;;;;;;5113842;27;20149;-94
2023/09/03 03:42:24;;;;;;;14.00;8.75;;;16.00;99.90;;;;;;5121037;27;20019;-94
2023/09/03 03:44:50;;;;;;;17.77;9.82;;;16.00;99.90;;;;;;5133622;27;20019;-90
2023/09/03 03:47:28;;;;;;;13.63;9.05;;;15.90;99.90;;;;;;5133953;27;20063;-91
2023/09/03 03:49:54;;;;;;;12.02;8.63;;;15.90;99.90;;;;;;5123153;27;20019;-91
2023/09/03 03:52:22;;;;;;;14.35;8.95;;;15.90;99.90;;;;;;5120118;27;20098;-91
2023/09/03 03:54:51;;;;;;;14.02;8.15;;;15.80;99.90;;;;;;5123603;27;20052;-91
2023/09/03 03:57:22;;;;;;;10.70;7.00;;;15.80;99.90;;;;;;5124341;27;20076;-95
2023/09/03 03:59:51;;;;;;;13.82;8.77;;;15.80;99.90;;;;;;5131996;27;20023;-91
2023/09/03 04:02:17;;;;;;;11.70;7.53;;;15.80;99.90;;;;;;5117103;27;20046;-91
2023/09/03 04:04:43;;;;;;;12.95;7.20;;;15.80;99.90;;;;;;5121994;27;20024;-96
2023/09/03 04:07:09;;;;;;;12.15;6.60;;;15.80;99.90;;;;;;5129962;27;20030;-93
2023/09/03 04:09:35;;;;;;;8.32;6.70;;;15.80;99.90;;;;;;5111243;27;20499;-92
2023/09/03 04:12:04;;;;;;;11.60;7.72;;;15.70;99.90;;;;;;5129716;27;20019;-91
2023/09/03 04:14:38;;;;;;;9.70;6.00;;;15.70;99.90;;;;;;5126512;27;20032;-91
2023/09/03 04:17:04;;;;;;;8.75;5.72;;;15.70;99.90;;;;;;5120266;27;20042;-92
2023/09/03 04:19:33;;;;;;;8.90;5.82;;;15.70;99.90;;;;;;5125354;27;20015;-92
2023/09/03 04:22:02;;;;;;;6.93;4.68;;;15.70;99.90;;;;;;5130204;27;20035;-92
2023/09/03 04:24:49;;;;;;;6.45;5.70;;;15.70;99.90;;;;;;5125895;27;20024;-91
2023/09/03 04:27:13;;;;;;;9.65;5.85;;;15.70;99.90;;;;;;5129936;27;20046;-92
2023/09/03 04:29:39;;;;;;;9.40;5.53;;;15.70;99.90;;;;;;5131180;27;20036;-91
2023/09/03 04:32:06;;;;;;;8.98;5.50;;;15.70;99.90;;;;;;5131115;27;20027;-91
2023/09/03 04:34:31;;;;;;;7.75;5.68;;;15.70;99.90;;;;;;5117383;27;20468;-91
2023/09/03 04:37:00;;;;;;;9.40;5.78;;;15.70;99.90;;;;;;5115791;27;20025;-94
2023/09/03 04:39:27;;;;;;;6.70;5.57;;;15.70;99.90;;;;;;5126736;27;20492;-91
2023/09/03 04:42:04;;;;;;;13.63;5.55;;;15.60;99.90;;;;;;5130811;27;20341;-91
2023/09/03 04:44:30;;;;;;;12.20;5.25;;;15.70;99.90;;;;;;5113754;27;20523;-93
2023/09/03 04:46:56;;;;;;;15.38;6.60;;;15.60;99.90;;;;;;5126803;27;20023;-92
2023/09/03 04:49:23;;;;;;;8.60;6.30;;;15.70;99.90;;;;;;5118042;27;20552;-92
2023/09/03 04:51:57;;;;;;;11.77;7.47;;;15.60;99.90;;;;;;5120530;27;20027;-93
2023/09/03 04:54:23;;;;;;;21.25;8.43;;;15.60;99.90;;;;;;5124575;27;20076;-92
2023/09/03 04:56:55;;;;;;;15.75;9.68;;;15.60;99.90;;;;;;5126583;27;20216;-91
2023/09/03 04:59:24;;;;;;;11.50;9.38;;;15.70;99.90;;;;;;5130014;27;20023;-90
2023/09/03 05:01:49;;;;;;;14.25;10.13;;;15.60;99.90;;;;;;5122353;27;20038;-93
2023/09/03 05:04:18;;;;;;;17.80;10.25;;;15.80;99.90;;;;;;5127141;27;20630;-89
2023/09/03 05:06:44;;;;;;;22.35;14.30;;;15.70;99.90;;;;;;5128043;27;20026;-91
2023/09/03 05:09:12;;;;;;;27.83;15.40;;;15.70;99.90;;;;;;5130356;27;20018;-91
2023/09/03 05:11:42;;;;;;;31.08;14.98;;;15.60;99.90;;;;;;5121282;27;20040;-92
2023/09/03 05:14:17;;;;;;;17.05;12.52;;;15.60;99.90;;;;;;5124223;27;20456;-91
2023/09/03 05:16:43;;;;;;;25.15;14.15;;;15.60;99.90;;;;;;5131474;27;20518;-89
2023/09/03 05:19:20;;;;;;;23.77;15.15;;;15.50;99.90;;;;;;5119943;27;20027;-92
2023/09/03 05:21:46;;;;;;;25.08;16.23;;;15.60;99.90;;;;;;5123897;27;20062;-90
2023/09/03 05:24:14;;;;;;;28.15;16.42;;;15.60;99.90;;;;;;5124315;27;20486;-93
2023/09/03 05:26:40;;;;;;;22.80;15.55;;;15.60;99.90;;;;;;5120586;27;20091;-91
2023/09/03 05:29:06;;;;;;;27.80;16.98;;;15.60;99.90;;;;;;5124474;27;20022;-91
2023/09/03 05:31:35;;;;;;;26.17;16.38;;;15.50;99.90;;;;;;5121436;27;20049;-91
2023/09/03 05:34:10;;;;;;;23.27;16.02;;;15.60;99.90;;;;;;5119243;27;20051;-92
2023/09/03 05:36:35;;;;;;;24.53;16.57;;;15.60;99.90;;;;;;5126841;27;20456;-92
2023/09/03 05:39:04;;;;;;;39.90;19.48;;;15.60;99.90;;;;;;5116727;27;20582;-90
2023/09/03 05:41:31;;;;;;;41.75;21.00;;;15.60;99.90;;;;;;5100276;27;20480;-93
2023/09/03 05:43:57;;;;;;;30.92;20.95;;;15.60;99.90;;;;;;5111804;27;20034;-91
2023/09/03 05:46:26;;;;;;;25.75;19.48;;;15.60;99.90;;;;;;5110561;27;20028;-90
2023/09/03 05:48:55;;;;;;;31.58;19.30;;;15.50;99.90;;;;;;5119025;27;20027;-90
2023/09/03 05:51:20;;;;;;;34.17;20.50;;;15.40;99.90;;;;;;5114655;27;20033;-91
2023/09/03 05:53:49;;;;;;;29.35;20.25;;;15.40;99.90;;;;;;5111771;27;20110;-90
2023/09/03 05:56:14;;;;;;;31.05;20.35;;;15.50;99.90;;;;;;5119650;27;20048;-92
2023/09/03 05:58:40;;;;;;;28.92;17.75;;;15.50;99.90;;;;;;5112673;27;20077;-92
2023/09/03 06:01:07;;;;;;;31.65;18.67;;;15.40;99.90;;;;;;5120599;27;20035;-90
2023/09/03 06:03:36;;;;;;;38.05;19.23;;;15.40;99.90;;;;;;5113778;27;20502;-93
2023/09/03 06:06:06;;;;;;;36.47;17.77;;;15.50;99.90;;;;;;5115079;27;20031;-91
2023/09/03 06:08:33;;;;;;;27.55;16.42;;;15.40;99.90;;;;;;5116257;27;20054;-91
2023/09/03 06:11:03;;;;;;;33.20;18.27;;;15.40;99.90;;;;;;5099772;27;20024;-92
2023/09/03 06:13:31;;;;;;;29.55;16.05;;;15.50;99.90;;;;;;5119779;27;20019;-95
2023/09/03 06:15:59;;;;;;;29.67;15.48;;;15.40;99.90;;;;;;5124691;27;20122;-91
2023/09/03 06:18:25;;;;;;;29.50;16.10;;;15.50;99.90;;;;;;5119939;27;20483;-93
2023/09/03 06:20:51;;;;;;;23.13;15.77;;;15.50;99.90;;;;;;5111608;27;20046;-91
2023/09/03 06:23:21;;;;;;;25.00;15.43;;;15.50;99.90;;;;;;5114419;27;20178;-94
2023/09/03 06:25:47;;;;;;;30.70;15.65;;;15.50;99.90;;;;;;5114112;27;20019;-92
2023/09/03 06:28:13;;;;;;;17.83;11.98;;;15.50;99.90;;;;;;5127403;27;20030;-92
2023/09/03 06:30:39;;;;;;;25.90;15.68;;;15.60;99.90;;;;;;5121003;27;20064;-94
2023/09/03 06:33:05;;;;;;;30.15;14.68;;;15.60;99.90;;;;;;5117125;27;20027;-90
2023/09/03 06:35:31;;;;;;;25.65;14.95;;;15.60;99.90;;;;;;5110320;27;20023;-92
2023/09/03 06:37:57;;;;;;;22.75;13.02;;;15.60;99.90;;;;;;5119895;27;20029;-92
2023/09/03 06:40:23;;;;;;;21.73;12.88;;;15.60;99.90;;;;;;5125274;27;20046;-93
2023/09/03 06:42:49;;;;;;;26.42;13.75;;;15.60;99.90;;;;;;5108723;27;20523;-92
2023/09/03 06:45:15;;;;;;;19.45;11.82;;;15.60;99.90;;;;;;5118023;27;20039;-94
2023/09/03 06:47:40;;;;;;;21.92;13.23;;;15.60;99.90;;;;;;5111038;27;20027;-92
2023/09/03 06:50:07;;;;;;;22.83;14.02;;;15.60;99.90;;;;;;5118736;27;20488;-92
2023/09/03 06:52:34;;;;;;;23.38;12.70;;;15.60;99.90;;;;;;5123676;27;20048;-92
2023/09/03 06:55:01;;;;;;;17.40;12.68;;;15.60;99.90;;;;;;5116461;27;20023;-95
2023/09/03 06:57:33;;;;;;;19.63;12.70;;;15.60;99.90;;;;;;5095158;27;20043;-93
2023/09/03 07:00:00;;;;;;;23.60;12.73;;;15.60;99.90;;;;;;5114801;27;20072;-90
2023/09/03 07:02:27;;;;;;;23.17;12.57;;;15.70;99.90;;;;;;5113290;27;20073;-90
2023/09/03 07:04:56;;;;;;;17.48;11.32;;;15.70;99.90;;;;;;5128176;27;20023;-94
2023/09/03 07:07:23;;;;;;;18.63;11.20;;;15.70;99.90;;;;;;5123711;27;20033;-92
2023/09/03 07:09:48;;;;;;;22.60;11.02;;;15.70;99.90;;;;;;5124320;27;20122;-92
2023/09/03 07:12:14;;;;;;;23.13;11.02;;;15.70;99.90;;;;;;5118154;27;20031;-92
2023/09/03 07:14:39;;;;;;;17.50;10.05;;;15.80;99.90;;;;;;5111733;28;20572;-91
2023/09/03 07:17:05;;;;;;;15.27;10.07;;;15.80;99.90;;;;;;5122646;27;20032;-90
2023/09/03 07:19:32;;;;;;;18.33;9.75;;;15.80;99.90;;;;;;5127998;27;20106;-92
2023/09/03 07:21:59;;;;;;;14.20;9.07;;;15.80;99.90;;;;;;5124129;27;20031;-93
2023/09/03 07:24:25;;;;;;;16.30;8.18;;;15.80;99.90;;;;;;5122734;27;20381;-92
2023/09/03 07:26:50;;;;;;;19.65;8.00;;;15.80;99.90;;;;;;5113593;27;20023;-91
2023/09/03 07:29:16;;;;;;;16.60;8.77;;;15.80;99.90;;;;;;5126971;27;20134;-92
2023/09/03 07:31:43;;;;;;;12.45;7.35;;;15.80;99.90;;;;;;5107939;27;20036;-92
2023/09/03 07:34:12;;;;;;;19.48;8.25;;;15.90;99.90;;;;;;5113213;27;20064;-94
2023/09/03 07:36:39;;;;;;;16.30;7.47;;;15.90;99.90;;;;;;5127472;27;20031;-95
2023/09/03 07:39:06;;;;;;;12.90;6.22;;;16.00;99.90;;;;;;5118718;27;20027;-92
2023/09/03 07:41:33;;;;;;;11.50;6.07;;;16.10;99.90;;;;;;5115088;27;20062;-92
2023/09/03 07:43:59;;;;;;;20.13;6.18;;;16.00;99.90;;;;;;5120133;27;20051;-91
2023/09/03 07:46:31;;;;;;;12.55;6.22;;;16.10;99.90;;;;;;5123084;27;20082;-89
2023/09/03 07:48:57;;;;;;;16.65;5.82;;;16.10;99.90;;;;;;5134169;27;20176;-90
2023/09/03 07:51:22;;;;;;;9.55;4.53;;;16.10;99.90;;;;;;5121253;27;20028;-93
2023/09/03 07:53:49;;;;;;;12.07;5.32;;;16.00;99.90;;;;;;5123153;27;20023;-92
2023/09/03 07:56:15;;;;;;;9.73;4.65;;;16.00;99.90;;;;;;5113610;27;20076;-95
2023/09/03 07:58:42;;;;;;;14.38;5.38;;;16.00;99.90;;;;;;5122536;27;20027;-91
2023/09/03 08:01:11;;;;;;;13.30;5.20;;;16.00;99.90;;;;;;5116505;27;20080;-90
2023/09/03 08:03:39;;;;;;;12.05;4.63;;;16.10;99.90;;;;;;5119731;27;20027;-90
2023/09/03 08:06:08;;;;;;;11.88;4.55;;;16.10;99.90;;;;;;5124415;27;20033;-92
2023/09/03 08:08:34;;;;;;;9.35;3.55;;;16.10;99.90;;;;;;5121205;27;20019;-92
2023/09/03 08:11:00;;;;;;;8.77;3.63;;;16.20;99.90;;;;;;5119409;27;20480;-92
2023/09/03 08:13:27;;;;;;;11.90;3.60;;;16.20;99.90;;;;;;5125414;27;20054;-91
2023/09/03 08:15:52;;;;;;;8.70;3.53;;;16.30;99.90;;;;;;5121060;27;20015;-90
2023/09/03 08:18:18;;;;;;;9.70;3.42;;;16.30;99.90;;;;;;5114921;27;20030;-92
2023/09/03 08:20:44;;;;;;;6.28;3.45;;;16.30;99.90;;;;;;5130802;27;20087;-92
2023/09/03 08:23:11;;;;;;;3.83;3.17;;;16.30;99.90;;;;;;5108605;27;20052;-92
2023/09/03 08:25:37;;;;;;;11.13;3.95;;;16.30;99.90;;;;;;5143783;27;20303;-89
2023/09/03 08:28:03;;;;;;;12.45;3.58;;;16.30;99.90;;;;;;5129649;27;20101;-90
2023/09/03 08:30:28;;;;;;;5.72;2.67;;;16.40;99.90;;;;;;5135067;27;20256;-90
2023/09/03 08:32:54;;;;;;;9.85;2.85;;;16.40;99.90;;;;;;5117571;27;20435;-91
2023/09/03 08:35:20;;;;;;;14.13;2.97;;;16.50;99.90;;;;;;5115141;27;20114;-92
2023/09/03 08:37:45;;;;;;;5.43;2.53;;;16.40;99.90;;;;;;5117618;27;20035;-91
2023/09/03 08:40:12;;;;;;;5.50;2.47;;;16.40;99.90;;;;;;5125773;27;20535;-91
2023/09/03 08:42:40;;;;;;;6.57;2.40;;;16.50;99.90;;;;;;5109082;27;20030;-91
2023/09/03 08:45:10;;;;;;;9.73;2.50;;;16.50;99.90;;;;;;5121760;27;20055;-86
2023/09/03 08:47:39;;;;;;;11.60;3.35;;;16.50;99.90;;;;;;5104419;27;20027;-93
2023/09/03 08:50:07;;;;;;;8.82;2.38;;;16.50;99.90;;;;;;5122261;27;20535;-92
2023/09/03 08:52:34;;;;;;;7.53;2.33;;;16.50;99.90;;;;;;5120035;27;20077;-90
2023/09/03 08:55:00;;;;;;;10.85;2.35;;;16.40;99.90;;;;;;5127979;27;20051;-91
2023/09/03 08:57:30;;;;;;;8.52;2.38;;;16.40;99.90;;;;;;5101413;27;20019;-90
2023/09/03 08:59:56;;;;;;;10.18;2.47;;;16.40;99.90;;;;;;5120597;27;20030;-91
2023/09/03 09:02:24;;;;;;;7.20;2.72;;;16.50;99.90;;;;;;5127970;27;20074;-91
2023/09/03 09:04:50;;;;;;;10.60;2.38;;;16.50;99.90;;;;;;5122768;27;20038;-90
2023/09/03 09:07:19;;;;;;;9.25;2.67;;;16.60;99.90;;;;;;5115307;27;20397;-89
2023/09/03 09:09:47;;;;;;;5.05;2.28;;;16.60;99.90;;;;;;5115210;27;20046;-91
2023/09/03 09:12:19;;;;;;;11.70;2.63;;;16.70;99.90;;;;;;5122707;27;20479;-91
2023/09/03 09:14:52;;;;;;;5.13;2.55;;;16.70;99.90;;;;;;5114007;27;20111;-91
2023/09/03 09:17:18;;;;;;;4.15;2.00;;;16.80;99.90;;;;;;5112757;27;20051;-92
2023/09/03 09:19:44;;;;;;;4.72;2.40;;;16.80;99.90;;;;;;5127485;27;20043;-91
2023/09/03 09:22:10;;;;;;;7.57;2.60;;;16.90;99.90;;;;;;5114355;27;20119;-90
2023/09/03 09:24:43;;;;;;;5.53;2.38;;;16.90;99.90;;;;;;5128838;27;20023;-93
2023/09/03 09:27:19;;;;;;;5.78;2.78;;;16.90;99.90;;;;;;5122302;27;20034;-91
2023/09/03 09:29:46;;;;;;;7.60;2.55;;;17.00;99.90;;;;;;5120869;27;20039;-93
2023/09/03 09:32:18;;;;;;;9.80;2.22;;;16.90;99.90;;;;;;5143045;27;20027;-94
2023/09/03 09:34:44;;;;;;;7.30;2.40;;;16.90;99.90;;;;;;5121455;27;20117;-94
2023/09/03 09:37:10;;;;;;;7.95;2.42;;;16.90;99.90;;;;;;5122883;27;20047;-93
2023/09/03 09:39:47;;;;;;;2.85;1.92;;;17.00;99.90;;;;;;5120829;27;20069;-92
2023/09/03 09:42:13;;;;;;;4.50;2.70;;;17.00;99.90;;;;;;5128497;27;20077;-92
2023/09/03 09:44:51;;;;;;;7.28;2.42;;;17.10;99.90;;;;;;5120022;27;20425;-93
2023/09/03 09:47:18;;;;;;;4.55;2.20;;;17.20;99.90;;;;;;5115345;27;20031;-91
2023/09/03 09:49:47;;;;;;;5.78;2.53;;;17.20;99.90;;;;;;5116983;27;20046;-90
2023/09/03 09:52:14;;;;;;;5.88;2.60;;;17.30;99.90;;;;;;5123473;27;20042;-93
2023/09/03 09:54:44;;;;;;;5.68;2.30;;;17.30;99.90;;;;;;5124840;27;20501;-92
2023/09/03 09:57:20;;;;;;;4.43;2.78;;;17.40;99.90;;;;;;5124097;27;20026;-94
2023/09/03 09:59:55;;;;;;;5.75;2.00;;;17.50;99.90;;;;;;5137626;27;20372;-91
2023/09/03 10:02:22;;;;;;;5.60;2.05;;;17.50;99.90;;;;;;5121408;27;20101;-94
2023/09/03 10:04:49;;;;;;;4.95;1.83;;;17.50;99.90;;;;;;5146577;27;20045;-93
2023/09/03 10:07:15;;;;;;;6.45;1.98;;;17.50;99.90;;;;;;5129345;27;20019;-91
2023/09/03 10:09:44;;;;;;;4.85;2.05;;;17.50;99.90;;;;;;5112149;27;20024;-93
2023/09/03 10:12:11;;;;;;;3.30;1.88;;;17.60;99.90;;;;;;5118625;27;20099;-92
2023/09/03 10:14:40;;;;;;;5.25;1.95;;;17.70;99.90;;;;;;5118651;27;20191;-92
2023/09/03 10:17:09;;;;;;;9.93;2.10;;;17.60;99.90;;;;;;5112681;27;20024;-93
2023/09/03 10:19:42;;;;;;;4.75;1.88;;;17.70;99.90;;;;;;5129958;27;20033;-91
2023/09/03 10:22:13;;;;;;;4.72;2.00;;;17.70;99.90;;;;;;5090190;27;20038;-93
2023/09/03 10:24:42;;;;;;;3.13;2.05;;;17.70;99.90;;;;;;5118317;27;20031;-91
2023/09/03 10:27:13;;;;;;;4.20;1.83;;;17.80;99.90;;;;;;5120022;27;20074;-93
2023/09/03 10:29:42;;;;;;;4.70;1.75;;;17.70;99.90;;;;;;5121703;27;20473;-90
2023/09/03 10:32:13;;;;;;;4.30;1.83;;;17.70;99.90;;;;;;5112947;27;20043;-93
2023/09/03 10:34:39;;;;;;;8.98;2.45;;;17.80;99.90;;;;;;5110537;27;20034;-92
2023/09/03 10:37:07;;;;;;;4.20;1.88;;;17.90;99.90;;;;;;5130312;27;20042;-91
2023/09/03 10:39:37;;;;;;;4.25;2.20;;;17.90;99.90;;;;;;5116704;27;20288;-91
2023/09/03 10:42:18;;;;;;;3.58;1.90;;;17.90;99.90;;;;;;5119831;27;20132;-93
2023/09/03 10:44:56;;;;;;;5.93;2.35;;;17.90;99.90;;;;;;5124497;27;20058;-92
2023/09/03 10:47:22;;;;;;;4.10;1.80;;;18.00;99.90;;;;;;5123401;27;20057;-94
2023/09/03 10:49:53;;;;;;;6.07;1.90;;;18.00;99.90;;;;;;5118243;27;20053;-91
2023/09/03 10:52:31;;;;;;;3.58;1.63;;;18.10;99.90;;;;;;5114632;27;20451;-91
2023/09/03 10:55:21;;;;;;;3.45;2.05;;;18.10;99.90;;;;;;5111685;27;20536;-93
2023/09/03 10:58:16;;;;;;;6.53;2.33;;;18.10;99.90;;;;;;5108050;27;20050;-91
2023/09/03 11:01:22;;;;;;;4.23;2.30;;;18.20;99.90;;;;;;5083094;27;20050;-94
2023/09/03 11:03:52;;;;;;;7.78;2.60;;;18.20;99.90;;;;;;5110885;28;20487;-94
2023/09/03 11:06:31;;;;;;;6.43;1.73;;;18.30;99.90;;;;;;5118402;27;20031;-90
2023/09/03 11:08:59;;;;;;;4.68;2.40;;;18.40;99.90;;;;;;5121874;27;20058;-94
2023/09/03 11:11:28;;;;;;;6.53;2.25;;;18.40;99.90;;;;;;5117300;27;20091;-91
2023/09/03 11:13:55;;;;;;;5.97;2.00;;;18.40;99.90;;;;;;5120359;27;20464;-89
2023/09/03 11:16:39;;;;;;;3.47;1.70;;;18.40;99.90;;;;;;5121320;27;20030;-92
2023/09/03 11:19:07;;;;;;;6.75;2.45;;;18.40;99.90;;;;;;5124320;27;20051;-92
2023/09/03 11:21:34;;;;;;;4.68;2.35;;;18.50;99.90;;;;;;5108189;27;20111;-93
2023/09/03 11:24:03;;;;;;;4.88;2.00;;;18.70;99.90;;;;;;5129590;27;20034;-92
2023/09/03 11:26:34;;;;;;;5.90;2.53;;;18.70;99.90;;;;;;5128672;27;20552;-96
2023/09/03 11:29:01;;;;;;;10.82;3.38;;;18.80;99.90;;;;;;5126997;27;20026;-93
2023/09/03 11:31:27;;;;;;;4.10;1.50;;;18.80;99.90;;;;;;5128901;27;20051;-94
2023/09/03 11:33:55;;;;;;;2.67;1.73;;;18.80;99.90;;;;;;5132186;27;20018;-94
2023/09/03 11:36:24;;;;;;;4.40;1.85;;;18.80;99.90;;;;;;5118244;27;20933;-95
2023/09/03 11:38:55;;;;;;;3.33;1.95;;;18.80;99.90;;;;;;5121165;27;20458;-93
2023/09/03 11:41:21;;;;;;;5.07;2.05;;;18.90;99.90;;;;;;5137534;27;20133;-91
2023/09/03 11:43:47;;;;;;;4.30;1.65;;;18.90;99.90;;;;;;5139468;27;20039;-91
2023/09/03 11:46:15;;;;;;;4.38;1.95;;;18.80;99.90;;;;;;5124455;27;20228;-93
2023/09/03 11:48:49;;;;;;;1.90;1.63;;;18.90;99.90;;;;;;5110057;27;20019;-92
2023/09/03 11:51:22;;;;;;;5.25;1.70;;;18.90;99.90;;;;;;5113417;27;20027;-88
2023/09/03 11:53:49;;;;;;;3.95;2.10;;;18.80;99.90;;;;;;5114368;27;20042;-92
2023/09/03 11:56:18;;;;;;;8.00;2.58;;;18.90;99.90;;;;;;5122473;27;20157;-92
2023/09/03 11:58:45;;;;;;;3.92;2.45;;;18.90;99.90;;;;;;5130096;27;20027;-91
2023/09/03 12:01:13;;;;;;;5.47;2.13;;;19.00;99.90;;;;;;5129187;27;20480;-91
2023/09/03 12:03:38;;;;;;;5.88;2.33;;;19.00;99.90;;;;;;5126315;27;20461;-92
2023/09/03 12:06:04;;;;;;;5.10;2.05;;;19.10;99.90;;;;;;5121018;27;20030;-91
2023/09/03 12:08:33;;;;;;;4.15;2.10;;;19.10;99.90;;;;;;5123140;27;20033;-90
2023/09/03 12:10:59;;;;;;;4.55;2.17;;;19.10;99.90;;;;;;5133291;27;20031;-91
2023/09/03 12:13:35;;;;;;;5.45;2.80;;;19.20;99.90;;;;;;5122913;27;20126;-92
2023/09/03 12:16:14;;;;;;;4.25;2.95;;;19.20;99.90;;;;;;5114967;27;20419;-88
2023/09/03 12:19:01;;;;;;;8.35;2.45;;;19.40;99.90;;;;;;5141046;27;20421;-90
2023/09/03 12:21:38;;;;;;;7.28;2.58;;;19.50;99.90;;;;;;5132003;27;20075;-92
2023/09/03 12:24:06;;;;;;;7.80;2.90;;;19.60;99.90;;;;;;5126619;27;20027;-94
2023/09/03 12:26:35;;;;;;;4.75;2.72;;;19.50;99.90;;;;;;5120850;27;20081;-92
2023/09/03 12:29:18;;;;;;;4.82;2.78;;;19.50;99.90;;;;;;5130618;27;20025;-92
2023/09/03 12:31:44;;;;;;;7.72;2.88;;;19.50;99.90;;;;;;5140533;27;20056;-93
2023/09/03 12:34:11;;;;;;;5.18;2.25;;;19.50;99.90;;;;;;5146468;27;20019;-89
2023/09/03 12:36:57;;;;;;;2.70;2.05;;;19.50;99.90;;;;;;5136119;27;20038;-91
2023/09/03 12:39:32;;;;;;;3.03;2.17;;;19.40;99.90;;;;;;5141845;27;20046;-88
2023/09/03 12:41:58;;;;;;;;;;;19.40;99.90;;;;;;5137842;27;20115;-93
2023/09/03 12:44:26;;;;;;;5.78;2.10;;;19.50;99.90;;;;;;5145420;27;19948;-94
2023/09/03 12:46:52;;;;;;;2.33;1.80;;;19.60;99.90;;;;;;5115787;27;20037;-91